sensor_id;sensor_type;location;lat;lon;timestamp;P1;durP1;ratioP1;P2;durP2;ratioP2
33170;SDS011;19535;50.672;4.206;2022-09-16T00:00:31;22.48;;;20.50;;
33170;SDS011;19535;50.672;4.206;2022-09-16T00:02:58;23.30;;;21.20;;
33170;SDS011;19535;50.672;4.206;2022-09-16T00:05:25;20.77;;;19.05;;
33170;SDS011;19535;50.672;4.206;2022-09-16T00:07:52;20.40;;;18.70;;
33170;SDS011;19535;50.672;4.206;2022-09-16T00:10:21;19.87;;;18.17;;
33170;SDS011;19535;50.672;4.206;2022-09-16T00:12:48;19.60;;;17.83;;
33170;SDS011;19535;50.672;4.206;2022-09-16T00:15:15;18.88;;;17.35;;
33170;SDS011;19535;50.672;4.206;2022-09-16T00:17:43;17.15;;;15.75;;
33170;SDS011;19535;50.672;4.206;2022-09-16T00:20:09;17.10;;;15.60;;
33170;SDS011;19535;50.672;4.206;2022-09-16T00:22:37;16.98;;;15.48;;
33170;SDS011;19535;50.672;4.206;2022-09-16T00:25:04;16.52;;;15.15;;
33170;SDS011;19535;50.672;4.206;2022-09-16T00:27:31;15.88;;;14.57;;
33170;SDS011;19535;50.672;4.206;2022-09-16T00:29:58;15.02;;;13.75;;
33170;SDS011;19535;50.672;4.206;2022-09-16T00:32:25;14.93;;;13.55;;
33170;SDS011;19535;50.672;4.206;2022-09-16T00:34:52;14.10;;;12.90;;
33170;SDS011;19535;50.672;4.206;2022-09-16T00:37:19;14.15;;;12.85;;
33170;SDS011;19535;50.672;4.206;2022-09-16T00:39:46;13.70;;;12.50;;
33170;SDS011;19535;50.672;4.206;2022-09-16T00:42:14;13.80;;;12.60;;
33170;SDS011;19535;50.672;4.206;2022-09-16T00:53:14;11.93;;;10.77;;
33170;SDS011;19535;50.672;4.206;2022-09-16T00:55:43;10.55;;;9.68;;
33170;SDS011;19535;50.672;4.206;2022-09-16T00:58:12;11.65;;;10.65;;
33170;SDS011;19535;50.672;4.206;2022-09-16T01:00:51;10.23;;;9.35;;
33170;SDS011;19535;50.672;4.206;2022-09-16T01:03:18;9.85;;;9.05;;
33170;SDS011;19535;50.672;4.206;2022-09-16T01:05:45;10.40;;;9.50;;
33170;SDS011;19535;50.672;4.206;2022-09-16T01:08:12;9.88;;;8.98;;
33170;SDS011;19535;50.672;4.206;2022-09-16T01:10:39;9.50;;;8.70;;
33170;SDS011;19535;50.672;4.206;2022-09-16T01:13:08;9.20;;;8.30;;
33170;SDS011;19535;50.672;4.206;2022-09-16T01:18:39;8.93;;;8.13;;
33170;SDS011;19535;50.672;4.206;2022-09-16T01:21:30;8.70;;;8.00;;
33170;SDS011;19535;50.672;4.206;2022-09-16T01:27:20;7.88;;;7.10;;
33170;SDS011;19535;50.672;4.206;2022-09-16T01:44:45;6.72;;;6.13;;
33170;SDS011;19535;50.672;4.206;2022-09-16T01:47:07;6.65;;;5.80;;
33170;SDS011;19535;50.672;4.206;2022-09-16T01:49:56;6.95;;;5.90;;
33170;SDS011;19535;50.672;4.206;2022-09-16T01:52:28;5.90;;;5.32;;
33170;SDS011;19535;50.672;4.206;2022-09-16T01:55:05;5.65;;;5.13;;
33170;SDS011;19535;50.672;4.206;2022-09-16T01:57:39;5.68;;;5.07;;
33170;SDS011;19535;50.672;4.206;2022-09-16T02:02:45;4.90;;;4.50;;
33170;SDS011;19535;50.672;4.206;2022-09-16T02:05:20;6.03;;;4.85;;
33170;SDS011;19535;50.672;4.206;2022-09-16T02:08:29;6.50;;;4.65;;
33170;SDS011;19535;50.672;4.206;2022-09-16T02:11:07;5.32;;;4.75;;
33170;SDS011;19535;50.672;4.206;2022-09-16T02:13:40;5.00;;;4.53;;
33170;SDS011;19535;50.672;4.206;2022-09-16T02:16:23;4.80;;;4.30;;
33170;SDS011;19535;50.672;4.206;2022-09-16T02:18:56;4.72;;;4.22;;
33170;SDS011;19535;50.672;4.206;2022-09-16T02:21:29;6.97;;;4.03;;
33170;SDS011;19535;50.672;4.206;2022-09-16T02:23:59;4.22;;;3.83;;
33170;SDS011;19535;50.672;4.206;2022-09-16T02:26:32;5.13;;;3.83;;
33170;SDS011;19535;50.672;4.206;2022-09-16T02:29:02;3.80;;;3.50;;
33170;SDS011;19535;50.672;4.206;2022-09-16T02:31:42;5.13;;;4.00;;
33170;SDS011;19535;50.672;4.206;2022-09-16T02:34:12;3.97;;;3.58;;
33170;SDS011;19535;50.672;4.206;2022-09-16T02:36:44;3.78;;;3.42;;
33170;SDS011;19535;50.672;4.206;2022-09-16T02:41:41;3.95;;;3.22;;
33170;SDS011;19535;50.672;4.206;2022-09-16T02:44:08;3.63;;;3.28;;
33170;SDS011;19535;50.672;4.206;2022-09-16T02:46:43;4.28;;;2.92;;
33170;SDS011;19535;50.672;4.206;2022-09-16T02:52:38;3.35;;;3.05;;
33170;SDS011;19535;50.672;4.206;2022-09-16T02:55:24;3.35;;;2.80;;
33170;SDS011;19535;50.672;4.206;2022-09-16T02:57:54;3.90;;;2.92;;
33170;SDS011;19535;50.672;4.206;2022-09-16T03:00:21;4.30;;;2.83;;
33170;SDS011;19535;50.672;4.206;2022-09-16T03:02:48;3.05;;;2.75;;
33170;SDS011;19535;50.672;4.206;2022-09-16T03:05:15;4.65;;;3.00;;
33170;SDS011;19535;50.672;4.206;2022-09-16T03:07:42;4.55;;;2.85;;
33170;SDS011;19535;50.672;4.206;2022-09-16T03:10:09;2.67;;;2.30;;
33170;SDS011;19535;50.672;4.206;2022-09-16T03:23:22;3.65;;;2.45;;
33170;SDS011;19535;50.672;4.206;2022-09-16T03:25:59;3.03;;;2.30;;
33170;SDS011;19535;50.672;4.206;2022-09-16T03:31:29;3.13;;;2.28;;
33170;SDS011;19535;50.672;4.206;2022-09-16T03:37:06;2.38;;;2.05;;
33170;SDS011;19535;50.672;4.206;2022-09-16T03:39:34;2.20;;;2.00;;
33170;SDS011;19535;50.672;4.206;2022-09-16T03:42:03;3.40;;;2.20;;
33170;SDS011;19535;50.672;4.206;2022-09-16T03:44:33;2.65;;;2.08;;
33170;SDS011;19535;50.672;4.206;2022-09-16T03:47:02;2.90;;;1.87;;
33170;SDS011;19535;50.672;4.206;2022-09-16T03:49:29;2.92;;;2.15;;
33170;SDS011;19535;50.672;4.206;2022-09-16T03:51:56;2.70;;;1.80;;
33170;SDS011;19535;50.672;4.206;2022-09-16T03:54:24;2.10;;;1.70;;
33170;SDS011;19535;50.672;4.206;2022-09-16T03:56:51;2.60;;;1.88;;
33170;SDS011;19535;50.672;4.206;2022-09-16T03:59:18;1.92;;;1.50;;
33170;SDS011;19535;50.672;4.206;2022-09-16T04:01:45;5.93;;;2.22;;
33170;SDS011;19535;50.672;4.206;2022-09-16T04:04:12;3.53;;;1.80;;
33170;SDS011;19535;50.672;4.206;2022-09-16T04:06:39;2.65;;;1.80;;
33170;SDS011;19535;50.672;4.206;2022-09-16T04:09:06;1.90;;;1.55;;
33170;SDS011;19535;50.672;4.206;2022-09-16T04:11:33;2.30;;;1.77;;
33170;SDS011;19535;50.672;4.206;2022-09-16T04:14:00;2.80;;;1.42;;
33170;SDS011;19535;50.672;4.206;2022-09-16T04:16:28;3.42;;;1.90;;
33170;SDS011;19535;50.672;4.206;2022-09-16T04:18:56;1.77;;;1.40;;
33170;SDS011;19535;50.672;4.206;2022-09-16T04:21:23;2.55;;;1.50;;
33170;SDS011;19535;50.672;4.206;2022-09-16T04:23:50;3.40;;;1.55;;
33170;SDS011;19535;50.672;4.206;2022-09-16T04:26:17;2.40;;;1.67;;
33170;SDS011;19535;50.672;4.206;2022-09-16T04:28:44;2.90;;;1.42;;
33170;SDS011;19535;50.672;4.206;2022-09-16T04:31:13;3.03;;;1.55;;
33170;SDS011;19535;50.672;4.206;2022-09-16T04:33:41;2.90;;;1.50;;
33170;SDS011;19535;50.672;4.206;2022-09-16T04:36:09;2.92;;;1.45;;
33170;SDS011;19535;50.672;4.206;2022-09-16T04:38:40;1.95;;;1.50;;
33170;SDS011;19535;50.672;4.206;2022-09-16T04:41:12;2.00;;;1.20;;
33170;SDS011;19535;50.672;4.206;2022-09-16T04:43:40;2.15;;;1.33;;
33170;SDS011;19535;50.672;4.206;2022-09-16T04:46:08;1.45;;;1.23;;
33170;SDS011;19535;50.672;4.206;2022-09-16T04:48:35;1.95;;;1.13;;
33170;SDS011;19535;50.672;4.206;2022-09-16T04:51:06;1.85;;;1.10;;
33170;SDS011;19535;50.672;4.206;2022-09-16T04:53:37;2.30;;;1.17;;
33170;SDS011;19535;50.672;4.206;2022-09-16T04:56:15;2.95;;;1.35;;
33170;SDS011;19535;50.672;4.206;2022-09-16T04:58:50;1.77;;;1.20;;
33170;SDS011;19535;50.672;4.206;2022-09-16T05:01:19;1.73;;;1.10;;
33170;SDS011;19535;50.672;4.206;2022-09-16T05:03:48;1.67;;;0.90;;
33170;SDS011;19535;50.672;4.206;2022-09-16T05:08:48;2.05;;;1.52;;
33170;SDS011;19535;50.672;4.206;2022-09-16T05:11:20;2.88;;;1.30;;
33170;SDS011;19535;50.672;4.206;2022-09-16T05:13:47;2.78;;;1.25;;
33170;SDS011;19535;50.672;4.206;2022-09-16T05:16:16;2.88;;;0.90;;
33170;SDS011;19535;50.672;4.206;2022-09-16T05:18:45;2.65;;;0.98;;
33170;SDS011;19535;50.672;4.206;2022-09-16T05:21:17;2.25;;;1.05;;
33170;SDS011;19535;50.672;4.206;2022-09-16T05:23:45;1.75;;;1.20;;
33170;SDS011;19535;50.672;4.206;2022-09-16T05:26:17;1.65;;;1.00;;
33170;SDS011;19535;50.672;4.206;2022-09-16T05:28:45;2.78;;;1.00;;
33170;SDS011;19535;50.672;4.206;2022-09-16T05:31:17;1.90;;;1.00;;
33170;SDS011;19535;50.672;4.206;2022-09-16T05:33:56;2.70;;;1.10;;
33170;SDS011;19535;50.672;4.206;2022-09-16T05:36:28;3.90;;;1.10;;
33170;SDS011;19535;50.672;4.206;2022-09-16T05:38:57;1.13;;;0.90;;
33170;SDS011;19535;50.672;4.206;2022-09-16T05:41:44;2.17;;;1.30;;
33170;SDS011;19535;50.672;4.206;2022-09-16T05:44:12;1.55;;;1.15;;
33170;SDS011;19535;50.672;4.206;2022-09-16T05:46:39;4.60;;;1.25;;
33170;SDS011;19535;50.672;4.206;2022-09-16T05:49:07;1.52;;;1.20;;
33170;SDS011;19535;50.672;4.206;2022-09-16T05:51:35;2.60;;;1.20;;
33170;SDS011;19535;50.672;4.206;2022-09-16T05:54:03;1.83;;;1.00;;
33170;SDS011;19535;50.672;4.206;2022-09-16T05:56:30;2.95;;;1.00;;
33170;SDS011;19535;50.672;4.206;2022-09-16T05:58:57;3.15;;;1.10;;
33170;SDS011;19535;50.672;4.206;2022-09-16T06:01:26;3.78;;;1.25;;
33170;SDS011;19535;50.672;4.206;2022-09-16T06:03:54;3.53;;;1.08;;
33170;SDS011;19535;50.672;4.206;2022-09-16T06:06:22;2.40;;;1.20;;
33170;SDS011;19535;50.672;4.206;2022-09-16T06:09:08;2.97;;;1.10;;
33170;SDS011;19535;50.672;4.206;2022-09-16T06:11:43;3.70;;;1.38;;
33170;SDS011;19535;50.672;4.206;2022-09-16T06:14:12;2.05;;;0.95;;
33170;SDS011;19535;50.672;4.206;2022-09-16T06:16:40;3.28;;;1.30;;
33170;SDS011;19535;50.672;4.206;2022-09-16T06:19:09;2.97;;;1.05;;
33170;SDS011;19535;50.672;4.206;2022-09-16T06:21:38;2.55;;;0.90;;
33170;SDS011;19535;50.672;4.206;2022-09-16T06:24:05;1.23;;;0.95;;
33170;SDS011;19535;50.672;4.206;2022-09-16T06:26:38;3.25;;;1.30;;
33170;SDS011;19535;50.672;4.206;2022-09-16T06:29:07;3.10;;;1.00;;
33170;SDS011;19535;50.672;4.206;2022-09-16T06:31:34;2.30;;;1.15;;
33170;SDS011;19535;50.672;4.206;2022-09-16T06:34:02;2.58;;;1.20;;
33170;SDS011;19535;50.672;4.206;2022-09-16T06:36:31;2.85;;;1.00;;
33170;SDS011;19535;50.672;4.206;2022-09-16T06:38:59;2.38;;;1.10;;
33170;SDS011;19535;50.672;4.206;2022-09-16T06:41:26;7.45;;;6.10;;
33170;SDS011;19535;50.672;4.206;2022-09-16T06:43:54;25.38;;;23.08;;
33170;SDS011;19535;50.672;4.206;2022-09-16T06:46:21;23.58;;;21.35;;
33170;SDS011;19535;50.672;4.206;2022-09-16T06:48:51;22.05;;;19.73;;
33170;SDS011;19535;50.672;4.206;2022-09-16T06:51:20;19.13;;;17.33;;
33170;SDS011;19535;50.672;4.206;2022-09-16T06:53:58;16.02;;;14.48;;
33170;SDS011;19535;50.672;4.206;2022-09-16T06:56:26;13.30;;;12.20;;
33170;SDS011;19535;50.672;4.206;2022-09-16T06:58:53;11.95;;;10.75;;
33170;SDS011;19535;50.672;4.206;2022-09-16T07:01:23;10.23;;;9.32;;
33170;SDS011;19535;50.672;4.206;2022-09-16T07:03:51;9.82;;;8.93;;
33170;SDS011;19535;50.672;4.206;2022-09-16T07:06:19;10.00;;;9.00;;
33170;SDS011;19535;50.672;4.206;2022-09-16T07:08:47;10.43;;;7.93;;
33170;SDS011;19535;50.672;4.206;2022-09-16T07:11:18;8.70;;;7.90;;
33170;SDS011;19535;50.672;4.206;2022-09-16T07:13:46;7.82;;;7.18;;
33170;SDS011;19535;50.672;4.206;2022-09-16T07:16:14;9.48;;;7.18;;
33170;SDS011;19535;50.672;4.206;2022-09-16T07:18:46;7.57;;;6.88;;
33170;SDS011;19535;50.672;4.206;2022-09-16T07:21:17;8.18;;;7.43;;
33170;SDS011;19535;50.672;4.206;2022-09-16T07:23:44;77.72;;;69.68;;
33170;SDS011;19535;50.672;4.206;2022-09-16T07:28:40;65.07;;;58.10;;
33170;SDS011;19535;50.672;4.206;2022-09-16T07:31:08;58.10;;;52.05;;
33170;SDS011;19535;50.672;4.206;2022-09-16T07:33:40;48.40;;;43.40;;
33170;SDS011;19535;50.672;4.206;2022-09-16T07:36:09;40.30;;;36.60;;
33170;SDS011;19535;50.672;4.206;2022-09-16T07:38:37;35.03;;;31.80;;
33170;SDS011;19535;50.672;4.206;2022-09-16T07:41:05;33.15;;;30.17;;
33170;SDS011;19535;50.672;4.206;2022-09-16T07:43:33;29.75;;;27.02;;
33170;SDS011;19535;50.672;4.206;2022-09-16T07:46:00;27.40;;;25.10;;
33170;SDS011;19535;50.672;4.206;2022-09-16T07:48:28;27.55;;;25.17;;
33170;SDS011;19535;50.672;4.206;2022-09-16T07:51:01;25.45;;;23.23;;
33170;SDS011;19535;50.672;4.206;2022-09-16T07:56:04;23.73;;;21.58;;
33170;SDS011;19535;50.672;4.206;2022-09-16T07:58:32;22.63;;;20.48;;
33170;SDS011;19535;50.672;4.206;2022-09-16T08:00:59;21.70;;;19.88;;
33170;SDS011;19535;50.672;4.206;2022-09-16T08:03:33;21.52;;;19.20;;
33170;SDS011;19535;50.672;4.206;2022-09-16T08:06:06;21.10;;;19.23;;
33170;SDS011;19535;50.672;4.206;2022-09-16T08:08:34;20.77;;;18.90;;
33170;SDS011;19535;50.672;4.206;2022-09-16T08:11:02;20.48;;;18.73;;
33170;SDS011;19535;50.672;4.206;2022-09-16T08:13:30;19.10;;;17.17;;
33170;SDS011;19535;50.672;4.206;2022-09-16T08:16:02;18.38;;;16.75;;
33170;SDS011;19535;50.672;4.206;2022-09-16T08:18:31;19.42;;;17.73;;
33170;SDS011;19535;50.672;4.206;2022-09-16T08:20:58;20.90;;;19.13;;
33170;SDS011;19535;50.672;4.206;2022-09-16T08:23:40;18.42;;;16.98;;
33170;SDS011;19535;50.672;4.206;2022-09-16T08:26:07;18.92;;;17.30;;
33170;SDS011;19535;50.672;4.206;2022-09-16T08:28:36;18.17;;;16.40;;
33170;SDS011;19535;50.672;4.206;2022-09-16T08:31:24;17.02;;;15.63;;
33170;SDS011;19535;50.672;4.206;2022-09-16T08:33:51;16.63;;;15.23;;
33170;SDS011;19535;50.672;4.206;2022-09-16T08:36:22;15.93;;;14.50;;
33170;SDS011;19535;50.672;4.206;2022-09-16T08:38:50;15.50;;;14.30;;
33170;SDS011;19535;50.672;4.206;2022-09-16T08:44:01;13.20;;;12.20;;
33170;SDS011;19535;50.672;4.206;2022-09-16T08:46:51;52.60;;;47.60;;
33170;SDS011;19535;50.672;4.206;2022-09-16T08:52:02;39.90;;;36.25;;
33170;SDS011;19535;50.672;4.206;2022-09-16T08:54:40;33.15;;;30.33;;
33170;SDS011;19535;50.672;4.206;2022-09-16T08:57:17;24.77;;;22.67;;
33170;SDS011;19535;50.672;4.206;2022-09-16T08:59:52;21.42;;;19.73;;
33170;SDS011;19535;50.672;4.206;2022-09-16T09:05:18;19.52;;;17.98;;
33170;SDS011;19535;50.672;4.206;2022-09-16T09:08:09;18.10;;;16.58;;
33170;SDS011;19535;50.672;4.206;2022-09-16T09:13:20;16.15;;;14.75;;
33170;SDS011;19535;50.672;4.206;2022-09-16T09:15:53;15.45;;;14.15;;
33170;SDS011;19535;50.672;4.206;2022-09-16T09:18:38;16.00;;;14.02;;
33170;SDS011;19535;50.672;4.206;2022-09-16T09:24:29;14.45;;;13.13;;
33170;SDS011;19535;50.672;4.206;2022-09-16T09:35:33;25.77;;;23.65;;
33170;SDS011;19535;50.672;4.206;2022-09-16T09:38:29;20.58;;;18.88;;
33170;SDS011;19535;50.672;4.206;2022-09-16T09:41:07;17.60;;;16.10;;
33170;SDS011;19535;50.672;4.206;2022-09-16T09:43:53;16.80;;;15.05;;
33170;SDS011;19535;50.672;4.206;2022-09-16T09:46:25;15.18;;;13.85;;
33170;SDS011;19535;50.672;4.206;2022-09-16T09:51:43;13.60;;;12.60;;
33170;SDS011;19535;50.672;4.206;2022-09-16T09:59:47;12.07;;;11.07;;
33170;SDS011;19535;50.672;4.206;2022-09-16T10:02:17;11.98;;;10.98;;
33170;SDS011;19535;50.672;4.206;2022-09-16T10:04:45;12.60;;;11.50;;
33170;SDS011;19535;50.672;4.206;2022-09-16T10:07:13;15.38;;;9.88;;
33170;SDS011;19535;50.672;4.206;2022-09-16T10:09:54;10.02;;;9.23;;
33170;SDS011;19535;50.672;4.206;2022-09-16T10:12:30;9.18;;;8.48;;
33170;SDS011;19535;50.672;4.206;2022-09-16T10:14:59;101.38;;;90.70;;
33170;SDS011;19535;50.672;4.206;2022-09-16T10:17:28;69.03;;;62.08;;
33170;SDS011;19535;50.672;4.206;2022-09-16T10:20:01;55.10;;;49.70;;
33170;SDS011;19535;50.672;4.206;2022-09-16T10:22:52;47.15;;;42.72;;
33170;SDS011;19535;50.672;4.206;2022-09-16T10:25:28;39.70;;;36.08;;
33170;SDS011;19535;50.672;4.206;2022-09-16T10:28:00;35.90;;;32.80;;
33170;SDS011;19535;50.672;4.206;2022-09-16T10:30:30;30.33;;;27.67;;
33170;SDS011;19535;50.672;4.206;2022-09-16T10:33:11;28.40;;;25.77;;
33170;SDS011;19535;50.672;4.206;2022-09-16T10:35:51;26.65;;;24.23;;
33170;SDS011;19535;50.672;4.206;2022-09-16T10:38:26;24.52;;;22.48;;
33170;SDS011;19535;50.672;4.206;2022-09-16T10:41:08;22.92;;;20.83;;
33170;SDS011;19535;50.672;4.206;2022-09-16T10:43:44;22.27;;;20.23;;
33170;SDS011;19535;50.672;4.206;2022-09-16T10:46:16;20.77;;;18.98;;
33170;SDS011;19535;50.672;4.206;2022-09-16T10:48:44;19.42;;;17.83;;
33170;SDS011;19535;50.672;4.206;2022-09-16T10:51:26;19.50;;;17.90;;
33170;SDS011;19535;50.672;4.206;2022-09-16T10:53:56;18.40;;;16.70;;
33170;SDS011;19535;50.672;4.206;2022-09-16T10:56:26;18.25;;;16.75;;
33170;SDS011;19535;50.672;4.206;2022-09-16T10:59:01;16.92;;;15.52;;
33170;SDS011;19535;50.672;4.206;2022-09-16T11:01:31;17.00;;;15.52;;
33170;SDS011;19535;50.672;4.206;2022-09-16T11:04:26;16.80;;;15.30;;
33170;SDS011;19535;50.672;4.206;2022-09-16T11:10:00;14.75;;;13.45;;
33170;SDS011;19535;50.672;4.206;2022-09-16T11:15:18;14.23;;;13.13;;
33170;SDS011;19535;50.672;4.206;2022-09-16T11:34:59;11.48;;;10.55;;
33170;SDS011;19535;50.672;4.206;2022-09-16T11:40:53;9.70;;;8.80;;
33170;SDS011;19535;50.672;4.206;2022-09-16T11:46:06;8.83;;;8.03;;
33170;SDS011;19535;50.672;4.206;2022-09-16T11:54:50;9.73;;;6.93;;
33170;SDS011;19535;50.672;4.206;2022-09-16T11:57:36;7.43;;;6.73;;
33170;SDS011;19535;50.672;4.206;2022-09-16T12:00:11;6.70;;;6.10;;
33170;SDS011;19535;50.672;4.206;2022-09-16T12:10:46;5.25;;;4.78;;
33170;SDS011;19535;50.672;4.206;2022-09-16T12:13:16;5.72;;;5.25;;
33170;SDS011;19535;50.672;4.206;2022-09-16T12:15:52;6.13;;;5.63;;
33170;SDS011;19535;50.672;4.206;2022-09-16T12:18:27;6.10;;;5.45;;
33170;SDS011;19535;50.672;4.206;2022-09-16T12:21:08;18.65;;;17.15;;
33170;SDS011;19535;50.672;4.206;2022-09-16T12:23:41;44.08;;;39.75;;
33170;SDS011;19535;50.672;4.206;2022-09-16T12:26:12;40.92;;;37.10;;
33170;SDS011;19535;50.672;4.206;2022-09-16T12:31:19;35.22;;;32.05;;
33170;SDS011;19535;50.672;4.206;2022-09-16T12:34:24;29.95;;;27.40;;
33170;SDS011;19535;50.672;4.206;2022-09-16T12:39:49;21.17;;;19.58;;
33170;SDS011;19535;50.672;4.206;2022-09-16T13:01:43;13.85;;;12.75;;
33170;SDS011;19535;50.672;4.206;2022-09-16T13:04:17;12.30;;;11.30;;
33170;SDS011;19535;50.672;4.206;2022-09-16T13:06:49;12.57;;;11.50;;
33170;SDS011;19535;50.672;4.206;2022-09-16T13:09:25;11.93;;;10.90;;
33170;SDS011;19535;50.672;4.206;2022-09-16T13:11:57;13.70;;;12.60;;
33170;SDS011;19535;50.672;4.206;2022-09-16T13:14:50;43.05;;;38.63;;
33170;SDS011;19535;50.672;4.206;2022-09-16T13:22:46;22.52;;;20.63;;
33170;SDS011;19535;50.672;4.206;2022-09-16T13:33:41;13.20;;;12.18;;
33170;SDS011;19535;50.672;4.206;2022-09-16T13:38:47;12.38;;;11.40;;
33170;SDS011;19535;50.672;4.206;2022-09-16T13:49:38;16.45;;;15.05;;
33170;SDS011;19535;50.672;4.206;2022-09-16T13:52:09;13.38;;;12.27;;
33170;SDS011;19535;50.672;4.206;2022-09-16T13:54:41;12.05;;;11.05;;
33170;SDS011;19535;50.672;4.206;2022-09-16T14:10:59;8.40;;;7.17;;
33170;SDS011;19535;50.672;4.206;2022-09-16T14:13:52;8.02;;;7.32;;
33170;SDS011;19535;50.672;4.206;2022-09-16T14:16:32;7.47;;;6.88;;
33170;SDS011;19535;50.672;4.206;2022-09-16T14:21:31;6.78;;;6.28;;
33170;SDS011;19535;50.672;4.206;2022-09-16T14:24:14;98.60;;;88.25;;
33170;SDS011;19535;50.672;4.206;2022-09-16T14:26:52;88.47;;;79.25;;
33170;SDS011;19535;50.672;4.206;2022-09-16T14:29:19;73.95;;;66.30;;
33170;SDS011;19535;50.672;4.206;2022-09-16T14:31:47;68.03;;;60.90;;
33170;SDS011;19535;50.672;4.206;2022-09-16T14:34:16;56.53;;;50.83;;
33170;SDS011;19535;50.672;4.206;2022-09-16T14:37:00;44.60;;;40.28;;
33170;SDS011;19535;50.672;4.206;2022-09-16T14:39:27;40.38;;;36.38;;
33170;SDS011;19535;50.672;4.206;2022-09-16T14:42:03;37.03;;;33.80;;
33170;SDS011;19535;50.672;4.206;2022-09-16T14:44:35;36.42;;;32.95;;
33170;SDS011;19535;50.672;4.206;2022-09-16T14:47:16;33.28;;;30.38;;
33170;SDS011;19535;50.672;4.206;2022-09-16T14:50:20;31.85;;;29.13;;
33170;SDS011;19535;50.672;4.206;2022-09-16T14:52:56;30.60;;;27.83;;
33170;SDS011;19535;50.672;4.206;2022-09-16T14:55:26;28.35;;;25.85;;
33170;SDS011;19535;50.672;4.206;2022-09-16T14:57:55;66.60;;;60.03;;
33170;SDS011;19535;50.672;4.206;2022-09-16T15:00:24;80.53;;;72.43;;
33170;SDS011;19535;50.672;4.206;2022-09-16T15:02:57;75.25;;;67.70;;
33170;SDS011;19535;50.672;4.206;2022-09-16T15:05:34;61.42;;;55.20;;
33170;SDS011;19535;50.672;4.206;2022-09-16T15:08:09;47.13;;;42.65;;
33170;SDS011;19535;50.672;4.206;2022-09-16T15:10:44;42.50;;;38.60;;
33170;SDS011;19535;50.672;4.206;2022-09-16T15:13:18;38.70;;;35.22;;
33170;SDS011;19535;50.672;4.206;2022-09-16T15:18:31;32.33;;;29.52;;
33170;SDS011;19535;50.672;4.206;2022-09-16T15:21:06;29.92;;;27.17;;
33170;SDS011;19535;50.672;4.206;2022-09-16T15:23:37;27.60;;;25.20;;
33170;SDS011;19535;50.672;4.206;2022-09-16T15:26:10;26.17;;;23.98;;
33170;SDS011;19535;50.672;4.206;2022-09-16T15:31:44;23.83;;;21.73;;
33170;SDS011;19535;50.672;4.206;2022-09-16T15:36:45;20.75;;;18.95;;
33170;SDS011;19535;50.672;4.206;2022-09-16T15:39:26;20.85;;;19.15;;
33170;SDS011;19535;50.672;4.206;2022-09-16T15:47:18;17.33;;;15.73;;
33170;SDS011;19535;50.672;4.206;2022-09-16T15:49:46;17.45;;;15.98;;
33170;SDS011;19535;50.672;4.206;2022-09-16T15:52:15;17.05;;;15.65;;
33170;SDS011;19535;50.672;4.206;2022-09-16T15:54:49;16.35;;;14.95;;
33170;SDS011;19535;50.672;4.206;2022-09-16T15:57:30;15.15;;;13.85;;
33170;SDS011;19535;50.672;4.206;2022-09-16T16:00:06;14.13;;;12.95;;
33170;SDS011;19535;50.672;4.206;2022-09-16T16:05:16;12.57;;;11.47;;
33170;SDS011;19535;50.672;4.206;2022-09-16T16:10:21;11.75;;;10.75;;
33170;SDS011;19535;50.672;4.206;2022-09-16T16:12:51;10.30;;;9.40;;
33170;SDS011;19535;50.672;4.206;2022-09-16T16:15:23;10.90;;;9.90;;
33170;SDS011;19535;50.672;4.206;2022-09-16T16:17:52;10.68;;;9.77;;
33170;SDS011;19535;50.672;4.206;2022-09-16T16:20:22;65.25;;;58.78;;
33170;SDS011;19535;50.672;4.206;2022-09-16T16:22:49;85.45;;;76.97;;
33170;SDS011;19535;50.672;4.206;2022-09-16T16:25:17;70.40;;;63.80;;
33170;SDS011;19535;50.672;4.206;2022-09-16T16:27:44;66.63;;;60.03;;
33170;SDS011;19535;50.672;4.206;2022-09-16T16:30:11;65.38;;;59.03;;
33170;SDS011;19535;50.672;4.206;2022-09-16T16:32:38;172.63;;;155.57;;
33170;SDS011;19535;50.672;4.206;2022-09-16T16:35:05;134.05;;;120.65;;
33170;SDS011;19535;50.672;4.206;2022-09-16T16:37:32;124.93;;;112.55;;
33170;SDS011;19535;50.672;4.206;2022-09-16T16:42:40;103.28;;;93.10;;
33170;SDS011;19535;50.672;4.206;2022-09-16T16:45:10;90.85;;;81.78;;
33170;SDS011;19535;50.672;4.206;2022-09-16T16:50:05;74.88;;;67.43;;
33170;SDS011;19535;50.672;4.206;2022-09-16T16:52:32;76.97;;;69.47;;
33170;SDS011;19535;50.672;4.206;2022-09-16T16:54:59;67.25;;;60.38;;
33170;SDS011;19535;50.672;4.206;2022-09-16T16:57:26;64.55;;;58.55;;
33170;SDS011;19535;50.672;4.206;2022-09-16T16:59:53;61.10;;;55.28;;
33170;SDS011;19535;50.672;4.206;2022-09-16T17:02:20;56.10;;;50.72;;
33170;SDS011;19535;50.672;4.206;2022-09-16T17:04:47;54.55;;;49.30;;
33170;SDS011;19535;50.672;4.206;2022-09-16T17:07:14;48.63;;;44.30;;
33170;SDS011;19535;50.672;4.206;2022-09-16T17:09:56;46.40;;;42.20;;
33170;SDS011;19535;50.672;4.206;2022-09-16T17:12:23;45.90;;;41.85;;
33170;SDS011;19535;50.672;4.206;2022-09-16T17:14:50;42.42;;;38.72;;
33170;SDS011;19535;50.672;4.206;2022-09-16T17:17:17;40.50;;;36.80;;
33170;SDS011;19535;50.672;4.206;2022-09-16T17:19:44;39.55;;;35.85;;
33170;SDS011;19535;50.672;4.206;2022-09-16T17:22:10;34.78;;;31.77;;
33170;SDS011;19535;50.672;4.206;2022-09-16T17:24:37;33.78;;;30.77;;
33170;SDS011;19535;50.672;4.206;2022-09-16T17:27:04;32.63;;;29.77;;
33170;SDS011;19535;50.672;4.206;2022-09-16T17:29:31;30.33;;;27.85;;
33170;SDS011;19535;50.672;4.206;2022-09-16T17:31:58;29.05;;;26.75;;
33170;SDS011;19535;50.672;4.206;2022-09-16T17:34:27;27.73;;;25.52;;
33170;SDS011;19535;50.672;4.206;2022-09-16T17:36:55;25.77;;;23.60;;
33170;SDS011;19535;50.672;4.206;2022-09-16T17:39:23;24.98;;;22.98;;
33170;SDS011;19535;50.672;4.206;2022-09-16T17:41:51;24.33;;;22.33;;
33170;SDS011;19535;50.672;4.206;2022-09-16T17:44:21;108.45;;;97.28;;
33170;SDS011;19535;50.672;4.206;2022-09-16T17:46:48;49.95;;;45.22;;
33170;SDS011;19535;50.672;4.206;2022-09-16T17:49:19;40.00;;;36.30;;
33170;SDS011;19535;50.672;4.206;2022-09-16T17:51:47;22.40;;;20.52;;
33170;SDS011;19535;50.672;4.206;2022-09-16T17:54:15;17.55;;;15.95;;
33170;SDS011;19535;50.672;4.206;2022-09-16T17:56:42;15.95;;;14.55;;
33170;SDS011;19535;50.672;4.206;2022-09-16T17:59:09;11.27;;;10.27;;
33170;SDS011;19535;50.672;4.206;2022-09-16T18:01:37;8.23;;;7.45;;
33170;SDS011;19535;50.672;4.206;2022-09-16T18:04:04;6.10;;;5.60;;
33170;SDS011;19535;50.672;4.206;2022-09-16T18:06:39;5.47;;;4.68;;
33170;SDS011;19535;50.672;4.206;2022-09-16T18:09:10;4.97;;;3.78;;
33170;SDS011;19535;50.672;4.206;2022-09-16T18:11:37;3.97;;;3.00;;
33170;SDS011;19535;50.672;4.206;2022-09-16T18:14:05;4.75;;;2.60;;
33170;SDS011;19535;50.672;4.206;2022-09-16T18:16:33;3.15;;;2.88;;
33170;SDS011;19535;50.672;4.206;2022-09-16T18:19:01;6.30;;;3.60;;
33170;SDS011;19535;50.672;4.206;2022-09-16T18:21:29;4.35;;;3.75;;
33170;SDS011;19535;50.672;4.206;2022-09-16T18:23:57;4.15;;;3.72;;
33170;SDS011;19535;50.672;4.206;2022-09-16T18:26:26;4.72;;;4.32;;
33170;SDS011;19535;50.672;4.206;2022-09-16T18:28:53;5.95;;;4.78;;
33170;SDS011;19535;50.672;4.206;2022-09-16T18:31:47;5.85;;;4.97;;
33170;SDS011;19535;50.672;4.206;2022-09-16T18:34:15;5.90;;;5.30;;
33170;SDS011;19535;50.672;4.206;2022-09-16T18:36:42;5.97;;;5.47;;
33170;SDS011;19535;50.672;4.206;2022-09-16T18:39:11;6.28;;;5.30;;
33170;SDS011;19535;50.672;4.206;2022-09-16T18:41:40;6.75;;;6.15;;
33170;SDS011;19535;50.672;4.206;2022-09-16T18:44:12;6.35;;;5.75;;